Texas Shootout - HAND INVENTORY

Station: HAND INVENTORY - T Race

Distance: 1 Miles

Release: 10-Jul-2017 07:30

Weather Release:    Arrival:

Wind at Release:     Wind at Arrival:

Temp at Release: °    Temp at Arrival: °

Lofts: 162

Birds: 1023

Clocked: 984

Good Luck to Everyone!
Drops Pos Breeder Pigeon Name Color Sex Ent Arrival Speed To Win Eligible
601 Neighbor Hood Bullies - TX 0766-AU17-WF BB H 8 10:55:30.70 8.564 02:50:36 Yes
602 Y Mtn Loft - TN 26200-AU17-YMTN BB C 1 10:55:31.97 8.563 02:50:38 Yes
603 Anderson, Aycock & Louie - AZ 1781-AU17-DEA SIL H 5 10:55:54.20 8.548 02:50:59 Yes
604 480 Volt Loft - TX 34106-AU17-AA BC H 4 10:55:55.52 8.547 02:51:01 Yes
605 New Orleans Boys - LA 0751-AU17-MET MLWF H 3 10:56:22.89 8.528 02:51:28 Yes
606 Liqingni Loft - NY 0271-AU17-YANG BCWF H 3 10:56:24.09 8.527 02:51:30 Yes
607 Zheng Loft - FL 8891-AU17-ZHEN BC C 3 10:56:42.88 8.514 02:51:49 Yes
608 Sandstrom Brothers Loft - MN 0814-AU17-SBL BCPD H 2 10:56:51.38 8.508 02:51:57 Yes
609 Dave Byer - CA 5720-AU17-ARPU BB H 6 10:57:12.78 8.494 02:52:18 Yes
610 Richard Callahan - MO 37942-AU17-AA BBWF C 5 10:57:14.41 8.493 02:52:19 Yes
611 Highland Loft - NY 17159-AU17-DZ BC H 2 10:57:31.31 8.481 02:52:37 Yes
612 Shiloft - PA 0060-IF17-MIN BC H 6 10:57:47.72 8.470 02:52:53 Yes
613 H & H Loft - TX 6964-AU17-VK BB C 9 10:57:49.20 8.469 02:52:54 Yes
614 Jokers Wild - CA 0345-AU17-JOKE BBWF C 5 11:00:21.09 8.367 02:55:26 Yes
615 Y Mtn Loft - TN 0166-AU17-ARPU BC C 2 11:00:35.31 8.358 02:55:40 Yes
616 Milestone Loft - CA 0193-AU17-SDM CWFP H 3 11:00:55.77 8.344 02:56:01 Yes
617 Rodriquez & Aubone - TX 1700-AU17-TEJA BC C 10 11:00:57.97 8.343 02:56:03 Yes
618 Chinese Union 2 - VA 0657-AU17-ZHEN BBWF H 4 11:01:18.02 8.329 02:56:24 Yes
619 Robin & Brenda - TX 0345-AU17-WWC Oly BB C 2 11:01:22.72 8.326 02:56:29 Yes
620 French Camp Connection - CA 71980-AU17-MAN BB C 1 11:01:36.09 8.318 02:56:41 Yes
621 Bill Traw - TX 1289-AU17-GHC RC C 5 11:01:37.63 8.317 02:56:42 Yes
622 Da Dong - WI 0814-AU17-DONG BBSP C 6 11:02:03.55 8.300 02:57:08 Yes
623 French Camp Connection - CA 71984-AU17-MAN BB C 2 11:02:04.88 8.299 02:57:10 Yes
624 Big Andy - FL 0267-AU17-ANDY BC H 1 11:02:22.61 8.287 02:57:28 Yes
625 Kwan Loft - CA 0795-AU17-KWAN BWFP H 5 11:02:24.63 8.286 02:57:30 Yes
626 ! ! ! S P E E D S - R A C E R S ! ! ! - FL 4152-AU17-RRP BBSP H 3 11:02:42.00 8.275 02:57:47 Yes
627 Baptista - IL 3084-AU17-FOYS RC C 3 11:02:53.03 8.267 02:57:59 Yes
628 Racine - WI 0594-AU17-RAC BB C 5 11:03:06.52 8.259 02:58:12 Yes
629 Two Cousins - LA 3071-AU17-BYOU DWFP H 2 11:03:07.88 8.258 02:58:13 Yes
630 Fleet Washington - DC 1777-AU17-FLTW BB C 2 11:03:28.99 8.244 02:58:35 Yes
631 Tex-Mex Loft - TX 0619-AU17-NSL RGRZ H 15 11:03:30.64 8.243 02:58:36 Yes
632 Gossett & Son - TX 1016-AU17-WF BB H 7 11:03:55.38 8.227 02:59:01 Yes
633 Liqingni Loft - NY 0262-AU17-YANG BB C 4 11:03:57.08 8.226 02:59:03 Yes
634 Taj Syndicate - TX 0099-AU17-EISN BB C 4 11:04:20.20 8.211 02:59:26 Yes
635 Lawrence Cummins - UT 0997-AU17-DWI BB C 3 11:04:21.74 8.210 02:59:28 Yes
636 Yendez Loft - TX 0093-AU17-YEND BC H 2 11:04:34.86 8.202 02:59:40 Yes
637 Frank Martinez - CA 8202-AU17-FORT BC C 3 11:04:43.99 8.196 02:59:50 Yes
638 Relax & Barger - CA 71999-AU17-MAN BB H 3 11:04:59.64 8.186 03:00:06 Yes
638 Alfonso Garcia - TX 0270-AU17-DAL BB H 6 11:05:00.83 8.186 03:00:06 Yes
640 Liu Loft - NC 8884-AU17-LIU BC C 2 11:05:19.39 8.174 03:00:24 Yes
641 John Coker - TX 34095-AU17-AA BBWF H 5 11:05:31.39 8.166 03:00:37 Yes
642 Neighbor Hood Bullies - TX 0543-AU17-WF BB H 9 11:06:01.92 8.147 03:01:07 Yes
643 Yendez Loft - TX 0090-AU17-YEND BBWF H 3 11:06:35.03 8.126 03:01:41 Yes
644 ! ! ! S P E E D S - R A C E R S ! ! ! - FL 2689-AU17-SCHE BB H 4 11:06:40.47 8.123 03:01:46 Yes
645 Tulsa Racers - OK 0768-AU17-TULS BB H 2 11:07:00.94 8.110 03:02:06 Yes
646 Richard Callahan - MO 37947-AU17-AA BC C 6 11:07:02.31 8.109 03:02:08 Yes
647 Zapopan-Palomar-Ayon Loft - TX 0499-AU17-AYON BB C 1 11:07:23.25 8.096 03:02:29 Yes
648 Flying D Diva - TX 0194-AU17-FLYD BBPD H 5 11:07:27.88 8.093 03:02:34 Yes
649 Milestone Loft - CA 0188-AU17-SD DCWF C 4 11:07:50.91 8.079 03:02:56 Yes
650 Big Andy - FL 0268-AU17-ANDY BC C 2 11:07:52.34 8.078 03:02:58 Yes
651 Sky Dancer Loft - TX 0332-AU17-WWC Patricio BBWF C 2 11:08:04.25 8.071 03:03:09 Yes
652 Champ Camp - IN 0190-AU17-CHMP BB H 9 11:08:20.05 8.061 03:03:26 Yes
653 Flying D Loft - TX 0304-AU17-FLYD BB H 3 11:08:23.84 8.059 03:03:29 Yes
654 Elton Dinga - TX 12150-AU17-AA BC H 35 11:08:42.61 8.047 03:03:48 Yes
655 Taj Syndicate - TX 0022-AU17-EISN BC C 5 11:08:43.84 8.046 03:03:50 Yes
656 Utaz Boys/ Jones - UT 1060-AU17-SLI CHWF H 2 11:09:03.84 8.034 03:04:10 Yes
657 Elton Dinga - TX 12157-AU17-AA BB H 36 11:09:05.52 8.033 03:04:11 Yes
658 Y Mtn Loft - TN 26153-AU17-YMTN BB H 3 11:09:29.44 8.019 03:04:34 Yes
659 Lechuga Loft - TX 0007-MX17-LECH RC C 1 11:09:30.64 8.018 03:04:36 Yes
660 Espo Loft - SC 0973-AU17-ESPO BB C 5 11:09:51.70 8.005 03:04:57 Yes
661 Chinese Union 2 - VA 0678-AU17-ZHEN WHT H 5 11:09:53.72 8.004 03:04:59 Yes
662 H & H Loft - TX 6967-AU17-VK BB H 10 11:10:15.17 7.991 03:05:20 Yes
663 Tex-Mex Loft - TX 0658-AU17-NSL DGRZ C 16 11:10:24.92 7.985 03:05:30 Yes
664 Sandstrom Brothers Loft - MN 0815-AU17-SBL BCPD H 3 11:10:37.39 7.977 03:05:44 Yes
664 Arandas Loft - TX 14361-AU17-ARPU DC H 2 11:10:38.58 7.977 03:05:44 Yes
666 Zhenyuan Guo - SC 0690-AU17-GUO BC H 3 11:10:58.47 7.965 03:06:03 Yes
667 Nemelka Racing Pigeon Loft - UT 7142-AU17-NRPL 4010 x Miss Beaut BC H 2 11:11:05.34 7.961 03:06:10 Yes
668 Flying D Loft - TX 0305-AU17-FLYD BB H 4 11:11:20.55 7.951 03:06:27 Yes
668 Fleet Washington - DC 1780-AU17-FLTW BB C 3 11:11:21.91 7.951 03:06:27 Yes
670 Wessel Family Lofts - CA 1463-AU17-ARC BC H 3 11:11:58.50 7.929 03:07:04 Yes
671 Sky Dancer Loft - TX 0343-AU17-WWC Lez Tango II BBWF C 3 11:12:10.41 7.922 03:07:15 Yes
672 West Wing Syndicate - TX 28707-AU17-AA BC C 5 11:12:40.56 7.904 03:07:46 Yes
673 Bieche Lofts - CA 7387-AU17-BCHE BC H 4 11:12:54.56 7.896 03:07:59 Yes
674 Elton Dinga - TX 12135-AU17-AA BB C 37 11:13:22.86 7.879 03:08:28 Yes
675 Fleet Washington - DC 1772-AU17-FLTW BB H 4 11:13:26.00 7.877 03:08:32 Yes
676 Nemelka Racing Pigeon Loft - UT 7128-AU17-NRPL 1096 x 1034 BC H 3 11:13:43.55 7.867 03:08:49 Yes
677 Chen Loft - PA 0130-AU17-TFC BC H 5 11:13:54.00 7.861 03:08:59 Yes
678 Zapopan-Palomar-Ayon Loft - TX 0464-AU17-AYON BC C 2 11:14:09.25 7.852 03:09:14 Yes
679 Flying D Loft - TX 0198-AU17-FLYD BC H 5 11:14:16.20 7.848 03:09:21 Yes
680 Floating Feather Loft - TX 1350-AU17-CVL BC C 3 11:14:35.49 7.836 03:09:42 Yes
681 Utaz Team - UT 0835-AU17-PSC BB H 5 11:14:37.44 7.835 03:09:43 Yes
682 Skylinerpl.Com - UT 0947-AU17-UVI BB C 2 11:14:58.20 7.823 03:10:04 Yes
683 Bynum Family Lofts - TX 0201-AU17-BFL BB H 8 11:15:03.34 7.820 03:10:09 Yes
684 Kwan Loft - CA 0789-AU17-KWAN BB C 6 11:15:23.22 7.809 03:10:28 Died
685 Fleet Washington - DC 1776-AU17-FLTW BB C 5 11:15:41.19 7.798 03:10:47 Died
685 Buck`S - TX 2047-AU17-KBUC BBSP C 5 11:15:42.64 7.798 03:10:47 Yes
687 Vick Corso - LA 1289-AU17-CRSO DWFP H 3 11:16:08.50 7.783 03:11:14 Yes
688 Skylinerpl.Com - UT 0951-AU17-UVI BC H 3 11:16:10.06 7.782 03:11:15 Yes
689 777 Victory Loft - NY 0133-AU17-NYLN CWFP H 2 11:16:30.49 7.770 03:11:36 Yes
690 Hugo Family Loft - IL 2277-MX17-ACEJ BB H 2 11:16:35.81 7.767 03:11:41 Yes
691 Frank Martinez - CA 8200-AU17-FORT BC H 4 11:16:54.25 7.757 03:11:59 Yes
692 Tou Loft - TN 0050-AU17-TOU BB H 1 11:16:55.72 7.756 03:12:01 Yes
693 Racing Pigeon Mall - WA 0710-AU17-RPM BB H 6 11:17:20.47 7.742 03:12:25 Yes
694 Vick Corso - LA 1296-AU17-CRSO BC C 4 11:17:25.63 7.739 03:12:31 Yes
695 Richard Callahan - MO 41042-AU17-AA BB H 7 11:17:41.45 7.730 03:12:47 Yes
696 Ed Minvielle - LA 17229-AU17-A BC C 5 11:17:45.50 7.727 03:12:52 Yes
697 Dream Union - DC 1160-IF17-SLP BC H 2 11:18:03.41 7.717 03:13:10 Yes
698 French Camp Connection - CA 71985-AU17-MAN BB C 3 11:18:13.27 7.712 03:13:18 Yes
699 C B S & Big Mike - OK 1914-AU17-CBS BCWF H 5 11:18:24.50 7.705 03:13:31 Yes
700 Richard Callahan - MO 37933-AU17-AA DC C 8 11:18:39.33 7.697 03:13:45 Yes

There are 1003 bird records

Note: These Race Results are unofficial and subject to change until verified by the Race Committee and declared final.